createdAt,value
2018-08-28T00:00:19.201Z,17.70
2018-08-28T00:06:22.616Z,17.60
2018-08-28T00:12:26.221Z,17.50
2018-08-28T00:18:29.914Z,17.50
2018-08-28T00:24:33.803Z,17.40
2018-08-28T00:30:38.140Z,17.30
2018-08-28T00:36:41.885Z,17.30
2018-08-28T00:42:46.468Z,17.20
2018-08-28T00:48:50.087Z,17.20
2018-08-28T00:54:53.593Z,17.20
2018-08-28T01:00:56.925Z,17.10
2018-08-28T01:07:00.616Z,17.20
2018-08-28T01:13:04.765Z,17.20
2018-08-28T01:19:08.298Z,17.20
2018-08-28T01:25:11.818Z,17.20
2018-08-28T01:31:15.390Z,17.20
2018-08-28T01:37:18.874Z,17.20
2018-08-28T01:43:23.137Z,17.20
2018-08-28T01:49:26.690Z,17.20
2018-08-28T01:55:30.462Z,17.20
2018-08-28T02:01:34.021Z,17.20
2018-08-28T02:07:38.317Z,17.10
2018-08-28T02:13:42.667Z,17.10
2018-08-28T02:19:46.339Z,17.10
2018-08-28T02:25:50.052Z,17.10
2018-08-28T02:31:53.630Z,17.10
2018-08-28T02:37:56.954Z,17.10
2018-08-28T02:44:00.499Z,17.10
2018-08-28T02:50:04.344Z,17.10
2018-08-28T02:56:08.193Z,17.00
2018-08-28T03:02:12.425Z,17.00
2018-08-28T03:08:15.977Z,16.90
2018-08-28T03:14:19.737Z,16.90
2018-08-28T03:20:23.471Z,16.80
2018-08-28T03:26:29.938Z,16.70
2018-08-28T03:32:33.616Z,16.70
2018-08-28T03:38:37.808Z,16.60
2018-08-28T03:44:41.522Z,16.60
2018-08-28T03:50:45.033Z,16.60
2018-08-28T03:56:48.471Z,16.50
2018-08-28T04:02:51.971Z,16.50
2018-08-28T04:08:55.981Z,16.40
2018-08-28T04:14:59.733Z,16.40
2018-08-28T04:21:03.572Z,16.40
2018-08-28T04:27:07.123Z,16.40
2018-08-28T04:33:10.524Z,16.40
2018-08-28T04:39:14.180Z,16.30
2018-08-28T04:45:18.874Z,16.30
2018-08-28T04:51:22.425Z,16.30
2018-08-28T04:57:26.548Z,16.30
2018-08-28T05:03:31.180Z,16.30
2018-08-28T05:09:34.584Z,16.30
2018-08-28T05:15:38.257Z,16.30
2018-08-28T05:21:41.795Z,16.30
2018-08-28T05:27:45.282Z,16.30
2018-08-28T05:33:48.835Z,16.30
2018-08-28T05:39:53.617Z,16.40
2018-08-28T05:45:57.738Z,16.40
2018-08-28T05:52:01.262Z,16.50
2018-08-28T05:58:05.858Z,16.70
2018-08-28T06:04:09.627Z,16.80
2018-08-28T06:10:20.239Z,16.90
2018-08-28T06:16:24.076Z,17.00
2018-08-28T06:22:27.862Z,17.10
2018-08-28T06:28:32.340Z,17.10
2018-08-28T06:34:35.962Z,17.20
2018-08-28T06:40:39.334Z,17.40
2018-08-28T06:46:42.901Z,17.50
2018-08-28T06:52:46.340Z,17.70
2018-08-28T06:58:50.119Z,17.90
2018-08-28T07:04:53.685Z,18.00
2018-08-28T07:10:57.021Z,18.10
2018-08-28T07:17:01.351Z,18.10
2018-08-28T07:23:05.972Z,18.10
2018-08-28T07:29:09.528Z,18.20
2018-08-28T07:35:13.398Z,18.40
2018-08-28T07:41:16.994Z,18.40
2018-08-28T07:47:20.679Z,18.40
2018-08-28T07:53:24.543Z,18.50
2018-08-28T07:59:28.634Z,18.60
2018-08-28T08:05:32.088Z,18.70
2018-08-28T08:11:36.922Z,18.80
2018-08-28T08:17:40.505Z,19.00
2018-08-28T08:23:44.439Z,19.00
2018-08-28T08:29:48.731Z,19.20
2018-08-28T08:35:52.102Z,19.30
2018-08-28T08:41:55.899Z,19.40
2018-08-28T08:47:59.540Z,19.60
2018-08-28T08:54:03.170Z,19.70
2018-08-28T09:00:07.603Z,19.70
2018-08-28T09:06:11.245Z,19.80
2018-08-28T09:12:15.199Z,19.80
2018-08-28T09:18:18.818Z,20.00
2018-08-28T09:24:22.687Z,20.10
2018-08-28T09:30:26.233Z,20.20
2018-08-28T09:36:29.617Z,20.40
2018-08-28T09:42:33.229Z,20.60
2018-08-28T09:48:37.017Z,20.80
2018-08-28T09:54:40.518Z,20.90
2018-08-28T10:00:49.688Z,21.00
2018-08-28T10:06:53.505Z,21.20
2018-08-28T10:12:57.265Z,21.30
2018-08-28T10:19:01.419Z,21.30
2018-08-28T10:25:04.842Z,21.40
2018-08-28T10:31:08.150Z,21.60
2018-08-28T10:37:11.798Z,21.60
2018-08-28T10:43:15.752Z,21.60
2018-08-28T10:49:19.320Z,21.70
2018-08-28T10:55:22.618Z,22.20
2018-08-28T11:01:26.061Z,22.50
2018-08-28T11:07:29.369Z,22.60
2018-08-28T11:13:32.729Z,22.60
2018-08-28T11:19:36.022Z,22.80
2018-08-28T11:25:40.255Z,23.20
2018-08-28T11:31:44.656Z,23.60
2018-08-28T11:37:48.285Z,23.60
2018-08-28T11:43:51.619Z,23.40
2018-08-28T11:49:55.034Z,23.60
2018-08-28T11:55:58.611Z,23.80
2018-08-28T12:02:02.137Z,23.90
2018-08-28T12:08:05.645Z,23.80
2018-08-28T12:14:09.006Z,23.70
2018-08-28T12:20:12.977Z,23.70
2018-08-28T12:26:16.476Z,23.60
2018-08-28T12:32:19.848Z,23.90
2018-08-28T12:38:23.557Z,23.90
2018-08-28T12:44:26.938Z,24.10
2018-08-28T12:50:30.841Z,24.70
2018-08-28T12:56:34.610Z,25.10
2018-08-28T13:02:37.998Z,25.30
2018-08-28T13:08:41.661Z,25.40
2018-08-28T13:14:45.438Z,25.30
2018-08-28T13:20:48.754Z,25.30
2018-08-28T13:26:52.098Z,25.30
2018-08-28T13:32:55.463Z,25.20
2018-08-28T13:38:58.791Z,25.10
2018-08-28T13:45:02.203Z,25.00
2018-08-28T13:51:05.955Z,24.90
2018-08-28T13:57:09.426Z,24.90
2018-08-28T14:03:13.100Z,25.00
2018-08-28T14:09:16.768Z,25.10
2018-08-28T14:15:20.290Z,25.20
2018-08-28T14:21:24.178Z,25.20
2018-08-28T14:27:27.994Z,25.20
2018-08-28T14:33:31.665Z,25.40
2018-08-28T14:39:35.211Z,25.50
2018-08-28T14:45:38.951Z,25.60
2018-08-28T14:51:42.640Z,26.00
2018-08-28T14:57:46.111Z,26.20
2018-08-28T15:03:49.861Z,26.70
2018-08-28T15:09:53.318Z,26.80
2018-08-28T15:15:58.678Z,26.90
2018-08-28T15:22:02.293Z,27.00
2018-08-28T15:28:06.045Z,27.00
2018-08-28T15:34:10.390Z,27.10
2018-08-28T15:40:15.057Z,27.20
2018-08-28T15:46:19.299Z,27.20
2018-08-28T15:52:23.488Z,27.30
2018-08-28T15:58:27.308Z,27.40
2018-08-28T16:04:32.611Z,27.30
2018-08-28T16:10:36.139Z,27.30
2018-08-28T16:16:41.685Z,27.20
2018-08-28T16:22:51.835Z,26.80
2018-08-28T16:28:56.576Z,26.10
2018-08-28T16:35:00.969Z,25.80
2018-08-28T16:41:05.055Z,25.70
2018-08-28T16:47:10.794Z,25.50
2018-08-28T16:53:14.628Z,25.30
2018-08-28T16:59:18.652Z,25.10
2018-08-28T17:05:23.426Z,24.80
2018-08-28T17:11:27.123Z,24.60
2018-08-28T17:17:31.802Z,24.40
2018-08-28T17:23:35.567Z,24.20
2018-08-28T17:29:40.222Z,23.90
2018-08-28T17:35:44.567Z,23.60
2018-08-28T17:41:48.222Z,23.40
2018-08-28T17:47:52.318Z,23.00
2018-08-28T17:53:55.686Z,22.70
2018-08-28T17:59:59.992Z,22.50
2018-08-28T18:06:03.707Z,22.10
2018-08-28T18:12:09.158Z,21.90
2018-08-28T18:18:12.868Z,21.70
2018-08-28T18:24:17.048Z,21.60
2018-08-28T18:30:21.452Z,21.40
2018-08-28T18:36:27.994Z,21.10
2018-08-28T18:42:32.569Z,20.80
2018-08-28T18:48:36.890Z,20.50
2018-08-28T18:54:40.875Z,20.40
2018-08-28T19:00:44.944Z,20.30
2018-08-28T19:06:52.826Z,20.20
2018-08-28T19:12:58.121Z,20.00
2018-08-28T19:19:01.614Z,19.70
2018-08-28T19:25:06.391Z,19.40
2018-08-28T19:31:10.119Z,19.30
2018-08-28T19:37:13.825Z,19.10
2018-08-28T19:43:17.296Z,19.00
2018-08-28T19:49:21.890Z,18.90
2018-08-28T19:55:26.062Z,18.70
2018-08-28T20:01:32.378Z,18.50
2018-08-28T20:07:36.834Z,18.20
2018-08-28T20:13:41.026Z,18.10
2018-08-28T20:19:45.578Z,18.10
2018-08-28T20:25:49.224Z,18.00
2018-08-28T20:31:53.263Z,17.80
2018-08-28T20:38:01.634Z,17.80
2018-08-28T20:44:07.340Z,17.70
2018-08-28T20:50:11.672Z,17.60
2018-08-28T20:56:16.842Z,17.50
2018-08-28T21:02:20.811Z,17.40
2018-08-28T21:08:27.911Z,17.40
2018-08-28T21:14:33.486Z,17.40
2018-08-28T21:20:37.868Z,17.40
2018-08-28T21:26:43.973Z,17.40
2018-08-28T21:32:47.822Z,17.40
2018-08-28T21:38:51.285Z,17.50
2018-08-28T21:44:55.716Z,17.60
2018-08-28T21:50:59.965Z,17.60
2018-08-28T21:57:03.769Z,17.50
2018-08-28T22:03:07.549Z,17.40
2018-08-28T22:09:11.205Z,17.10
2018-08-28T22:15:14.913Z,16.90
2018-08-28T22:21:19.238Z,16.50
2018-08-28T22:27:23.148Z,16.30
2018-08-28T22:33:26.615Z,16.30
2018-08-28T22:39:31.033Z,16.30
2018-08-28T22:45:35.364Z,16.00
2018-08-28T22:51:39.070Z,15.80
2018-08-28T22:57:42.465Z,15.70
2018-08-28T23:03:46.337Z,15.60
2018-08-28T23:09:49.898Z,15.60
2018-08-28T23:15:53.221Z,15.60
2018-08-28T23:21:57.065Z,15.60
2018-08-28T23:28:00.366Z,15.50
2018-08-28T23:34:04.458Z,15.30
2018-08-28T23:40:08.386Z,15.30
2018-08-28T23:46:11.934Z,15.30
2018-08-28T23:52:16.196Z,15.20
2018-08-28T23:58:19.581Z,15.10
